Search for airport 
image banner adimage banner adimage banner ad
image banner ad

SCMA - Puerto Marin Balmaceda

Located in Puerto Marin Balmaceda, Chile

ICAO - SCMA, IATA -

Data provided by Airmate  

General information

Coordinates: S43°47'15" W72°57'4"
Elevation is 10 feet MSL.
Magnetic variation is 9° East
View others Airports in Aisén del General Carlos Ibañez

Operational data

Special qualification required
Current time UTC:
Current local time:
Weather at : SCMK - Melinka ( 64 km )
METAR: SCMK 060100Z AUTO 24006KT //// // NCD 08/07 Q1025
View NOTAMs / SUP AIP / TFR affecting this airport [VIEW]
Communications frequencies: [VIEW]

Runways:

RWY identifierQFULength (ft)Width (ft)SurfaceLDA (ft)
08107°225358CONC
26287°225358CONC

Airport contact information

Address: Puerto Marin Balmaceda Chile

Satellite view of SCMA